sensor_id;sensor_type;location;lat;lon;timestamp;P1;durP1;ratioP1;P2;durP2;ratioP2
35434;SDS011;21556;55.782;37.528;2022-11-02T00:00:35;6.60;;;4.30;;
35434;SDS011;21556;55.782;37.528;2022-11-02T00:03:04;6.90;;;4.30;;
35434;SDS011;21556;55.782;37.528;2022-11-02T00:05:31;4.93;;;3.87;;
35434;SDS011;21556;55.782;37.528;2022-11-02T00:07:57;9.55;;;3.38;;
35434;SDS011;21556;55.782;37.528;2022-11-02T00:10:23;9.57;;;4.72;;
35434;SDS011;21556;55.782;37.528;2022-11-02T00:12:50;9.70;;;3.77;;
35434;SDS011;21556;55.782;37.528;2022-11-02T00:15:19;6.30;;;3.80;;
35434;SDS011;21556;55.782;37.528;2022-11-02T00:17:46;4.90;;;3.00;;
35434;SDS011;21556;55.782;37.528;2022-11-02T00:20:15;8.90;;;3.42;;
35434;SDS011;21556;55.782;37.528;2022-11-02T00:22:44;7.93;;;3.38;;
35434;SDS011;21556;55.782;37.528;2022-11-02T00:27:39;4.00;;;2.73;;
35434;SDS011;21556;55.782;37.528;2022-11-02T00:30:07;8.00;;;2.90;;
35434;SDS011;21556;55.782;37.528;2022-11-02T00:32:34;7.70;;;2.87;;
35434;SDS011;21556;55.782;37.528;2022-11-02T00:35:01;5.30;;;3.13;;
35434;SDS011;21556;55.782;37.528;2022-11-02T00:37:28;7.90;;;3.07;;
35434;SDS011;21556;55.782;37.528;2022-11-02T00:39:57;5.55;;;2.95;;
35434;SDS011;21556;55.782;37.528;2022-11-02T00:42:23;6.80;;;3.33;;
35434;SDS011;21556;55.782;37.528;2022-11-02T00:44:49;5.60;;;2.90;;
35434;SDS011;21556;55.782;37.528;2022-11-02T00:47:15;5.47;;;3.40;;
35434;SDS011;21556;55.782;37.528;2022-11-02T00:49:41;4.73;;;3.00;;
35434;SDS011;21556;55.782;37.528;2022-11-02T00:52:08;6.87;;;3.60;;
35434;SDS011;21556;55.782;37.528;2022-11-02T00:54:35;6.07;;;2.88;;
35434;SDS011;21556;55.782;37.528;2022-11-02T00:57:02;6.18;;;2.58;;
35434;SDS011;21556;55.782;37.528;2022-11-02T00:59:28;5.43;;;2.90;;
35434;SDS011;21556;55.782;37.528;2022-11-02T01:01:56;7.45;;;2.63;;
35434;SDS011;21556;55.782;37.528;2022-11-02T01:04:22;5.38;;;2.47;;
35434;SDS011;21556;55.782;37.528;2022-11-02T01:06:50;5.28;;;2.80;;
35434;SDS011;21556;55.782;37.528;2022-11-02T01:09:21;4.70;;;3.10;;
35434;SDS011;21556;55.782;37.528;2022-11-02T01:11:46;7.53;;;4.43;;
35434;SDS011;21556;55.782;37.528;2022-11-02T01:14:14;8.85;;;4.97;;
35434;SDS011;21556;55.782;37.528;2022-11-02T01:16:41;6.43;;;3.65;;
35434;SDS011;21556;55.782;37.528;2022-11-02T01:19:09;9.43;;;3.50;;
35434;SDS011;21556;55.782;37.528;2022-11-02T01:21:36;6.10;;;2.92;;
35434;SDS011;21556;55.782;37.528;2022-11-02T01:24:03;7.40;;;3.23;;
35434;SDS011;21556;55.782;37.528;2022-11-02T01:26:31;2.55;;;2.33;;
35434;SDS011;21556;55.782;37.528;2022-11-02T01:28:57;7.60;;;3.37;;
35434;SDS011;21556;55.782;37.528;2022-11-02T01:31:23;8.90;;;3.28;;
35434;SDS011;21556;55.782;37.528;2022-11-02T01:33:50;5.55;;;3.42;;
35434;SDS011;21556;55.782;37.528;2022-11-02T01:36:20;7.20;;;3.57;;
35434;SDS011;21556;55.782;37.528;2022-11-02T01:38:46;6.18;;;3.97;;
35434;SDS011;21556;55.782;37.528;2022-11-02T01:41:14;5.63;;;3.15;;
35434;SDS011;21556;55.782;37.528;2022-11-02T01:43:45;6.33;;;3.57;;
35434;SDS011;21556;55.782;37.528;2022-11-02T01:46:15;5.45;;;2.92;;
35434;SDS011;21556;55.782;37.528;2022-11-02T01:48:46;5.90;;;3.50;;
35434;SDS011;21556;55.782;37.528;2022-11-02T01:51:38;9.07;;;3.58;;
35434;SDS011;21556;55.782;37.528;2022-11-02T01:54:21;8.17;;;3.73;;
35434;SDS011;21556;55.782;37.528;2022-11-02T01:56:52;4.32;;;3.20;;
35434;SDS011;21556;55.782;37.528;2022-11-02T01:59:31;7.05;;;3.63;;
35434;SDS011;21556;55.782;37.528;2022-11-02T02:02:03;4.97;;;3.28;;
35434;SDS011;21556;55.782;37.528;2022-11-02T02:04:33;12.37;;;3.80;;
35434;SDS011;21556;55.782;37.528;2022-11-02T02:07:00;7.00;;;3.67;;
35434;SDS011;21556;55.782;37.528;2022-11-02T02:09:27;8.67;;;4.07;;
35434;SDS011;21556;55.782;37.528;2022-11-02T02:11:55;3.67;;;2.65;;
35434;SDS011;21556;55.782;37.528;2022-11-02T02:14:22;5.07;;;3.23;;
35434;SDS011;21556;55.782;37.528;2022-11-02T02:36:33;5.50;;;3.07;;
35434;SDS011;21556;55.782;37.528;2022-11-02T02:42:40;4.80;;;3.83;;
35434;SDS011;21556;55.782;37.528;2022-11-02T02:44:51;5.73;;;3.33;;
35434;SDS011;21556;55.782;37.528;2022-11-02T02:47:41;6.72;;;3.90;;
35434;SDS011;21556;55.782;37.528;2022-11-02T02:50:20;5.53;;;3.30;;
35434;SDS011;21556;55.782;37.528;2022-11-02T02:52:52;6.18;;;3.72;;
35434;SDS011;21556;55.782;37.528;2022-11-02T02:55:26;7.70;;;4.00;;
35434;SDS011;21556;55.782;37.528;2022-11-02T02:57:56;6.43;;;3.43;;
35434;SDS011;21556;55.782;37.528;2022-11-02T03:00:25;8.15;;;3.35;;
35434;SDS011;21556;55.782;37.528;2022-11-02T03:02:51;7.07;;;3.33;;
35434;SDS011;21556;55.782;37.528;2022-11-02T03:05:27;9.63;;;3.70;;
35434;SDS011;21556;55.782;37.528;2022-11-02T03:08:05;7.83;;;3.00;;
35434;SDS011;21556;55.782;37.528;2022-11-02T03:10:41;5.70;;;3.43;;
35434;SDS011;21556;55.782;37.528;2022-11-02T03:24:48;7.63;;;2.85;;
35434;SDS011;21556;55.782;37.528;2022-11-02T03:27:08;8.20;;;3.37;;
35434;SDS011;21556;55.782;37.528;2022-11-02T03:35:30;6.77;;;2.53;;
35434;SDS011;21556;55.782;37.528;2022-11-02T03:38:12;6.25;;;3.05;;
35434;SDS011;21556;55.782;37.528;2022-11-02T03:40:46;5.83;;;2.93;;
35434;SDS011;21556;55.782;37.528;2022-11-02T03:43:17;5.70;;;3.20;;
35434;SDS011;21556;55.782;37.528;2022-11-02T03:45:52;4.17;;;2.60;;
35434;SDS011;21556;55.782;37.528;2022-11-02T03:48:22;4.10;;;2.87;;
35434;SDS011;21556;55.782;37.528;2022-11-02T03:50:53;4.67;;;2.83;;
35434;SDS011;21556;55.782;37.528;2022-11-02T03:53:25;8.77;;;3.53;;
35434;SDS011;21556;55.782;37.528;2022-11-02T03:56:05;4.93;;;2.77;;
35434;SDS011;21556;55.782;37.528;2022-11-02T03:58:40;5.63;;;4.07;;
35434;SDS011;21556;55.782;37.528;2022-11-02T04:01:07;8.00;;;3.30;;
35434;SDS011;21556;55.782;37.528;2022-11-02T04:03:38;7.57;;;4.37;;
35434;SDS011;21556;55.782;37.528;2022-11-02T04:06:08;6.10;;;3.60;;
35434;SDS011;21556;55.782;37.528;2022-11-02T04:08:35;7.27;;;3.80;;
35434;SDS011;21556;55.782;37.528;2022-11-02T04:11:07;7.90;;;3.53;;
35434;SDS011;21556;55.782;37.528;2022-11-02T04:13:56;9.60;;;4.47;;
35434;SDS011;21556;55.782;37.528;2022-11-02T04:16:42;7.13;;;4.57;;
35434;SDS011;21556;55.782;37.528;2022-11-02T04:19:26;9.27;;;5.30;;
35434;SDS011;21556;55.782;37.528;2022-11-02T04:21:56;7.13;;;4.40;;
35434;SDS011;21556;55.782;37.528;2022-11-02T04:24:43;11.73;;;5.33;;
35434;SDS011;21556;55.782;37.528;2022-11-02T04:27:31;7.60;;;5.55;;
35434;SDS011;21556;55.782;37.528;2022-11-02T04:30:00;9.17;;;5.37;;
35434;SDS011;21556;55.782;37.528;2022-11-02T04:32:37;12.23;;;5.38;;
35434;SDS011;21556;55.782;37.528;2022-11-02T04:35:25;8.70;;;5.37;;
35434;SDS011;21556;55.782;37.528;2022-11-02T04:40:39;6.85;;;4.88;;
35434;SDS011;21556;55.782;37.528;2022-11-02T04:43:06;10.37;;;4.80;;
35434;SDS011;21556;55.782;37.528;2022-11-02T04:45:33;8.20;;;4.60;;
35434;SDS011;21556;55.782;37.528;2022-11-02T04:48:04;14.90;;;5.40;;
35434;SDS011;21556;55.782;37.528;2022-11-02T04:50:36;8.50;;;4.45;;
35434;SDS011;21556;55.782;37.528;2022-11-02T04:53:06;11.87;;;4.60;;
35434;SDS011;21556;55.782;37.528;2022-11-02T04:57:59;11.25;;;4.38;;
35434;SDS011;21556;55.782;37.528;2022-11-02T05:00:25;6.47;;;4.50;;
35434;SDS011;21556;55.782;37.528;2022-11-02T05:03:10;6.43;;;4.18;;
35434;SDS011;21556;55.782;37.528;2022-11-02T05:05:56;5.55;;;4.55;;
35434;SDS011;21556;55.782;37.528;2022-11-02T05:08:23;8.13;;;4.60;;
35434;SDS011;21556;55.782;37.528;2022-11-02T05:10:52;7.33;;;4.43;;
35434;SDS011;21556;55.782;37.528;2022-11-02T05:13:25;8.10;;;5.10;;
35434;SDS011;21556;55.782;37.528;2022-11-02T05:15:57;5.87;;;4.40;;
35434;SDS011;21556;55.782;37.528;2022-11-02T05:18:24;9.27;;;4.85;;
35434;SDS011;21556;55.782;37.528;2022-11-02T05:20:54;7.03;;;4.57;;
35434;SDS011;21556;55.782;37.528;2022-11-02T05:23:24;8.93;;;4.60;;
35434;SDS011;21556;55.782;37.528;2022-11-02T05:25:54;7.10;;;4.57;;
35434;SDS011;21556;55.782;37.528;2022-11-02T05:28:24;9.80;;;3.80;;
35434;SDS011;21556;55.782;37.528;2022-11-02T05:30:52;8.68;;;3.95;;
35434;SDS011;21556;55.782;37.528;2022-11-02T05:33:20;5.82;;;3.47;;
35434;SDS011;21556;55.782;37.528;2022-11-02T05:35:47;6.72;;;3.08;;
35434;SDS011;21556;55.782;37.528;2022-11-02T05:38:16;5.20;;;3.22;;
35434;SDS011;21556;55.782;37.528;2022-11-02T05:40:43;6.65;;;3.65;;
35434;SDS011;21556;55.782;37.528;2022-11-02T05:43:11;8.77;;;3.53;;
35434;SDS011;21556;55.782;37.528;2022-11-02T05:45:38;6.90;;;3.27;;
35434;SDS011;21556;55.782;37.528;2022-11-02T05:48:06;7.97;;;4.20;;
35434;SDS011;21556;55.782;37.528;2022-11-02T05:50:34;8.03;;;3.07;;
35434;SDS011;21556;55.782;37.528;2022-11-02T05:53:03;7.03;;;3.38;;
35434;SDS011;21556;55.782;37.528;2022-11-02T05:55:30;11.35;;;3.70;;
35434;SDS011;21556;55.782;37.528;2022-11-02T05:57:57;8.43;;;3.25;;
35434;SDS011;21556;55.782;37.528;2022-11-02T06:00:25;6.68;;;3.35;;
35434;SDS011;21556;55.782;37.528;2022-11-02T06:02:55;7.63;;;2.88;;
35434;SDS011;21556;55.782;37.528;2022-11-02T06:05:23;10.00;;;3.60;;
35434;SDS011;21556;55.782;37.528;2022-11-02T06:07:56;8.35;;;2.85;;
35434;SDS011;21556;55.782;37.528;2022-11-02T06:10:24;5.07;;;2.55;;
35434;SDS011;21556;55.782;37.528;2022-11-02T06:12:57;9.77;;;3.07;;
35434;SDS011;21556;55.782;37.528;2022-11-02T06:15:25;4.03;;;2.63;;
35434;SDS011;21556;55.782;37.528;2022-11-02T06:17:51;7.63;;;2.85;;
35434;SDS011;21556;55.782;37.528;2022-11-02T06:20:18;7.28;;;4.00;;
35434;SDS011;21556;55.782;37.528;2022-11-02T06:22:46;6.20;;;3.22;;
35434;SDS011;21556;55.782;37.528;2022-11-02T06:25:15;10.97;;;4.23;;
35434;SDS011;21556;55.782;37.528;2022-11-02T06:27:48;6.85;;;3.95;;
35434;SDS011;21556;55.782;37.528;2022-11-02T06:30:33;8.73;;;3.95;;
35434;SDS011;21556;55.782;37.528;2022-11-02T06:33:01;7.85;;;4.40;;
35434;SDS011;21556;55.782;37.528;2022-11-02T06:35:27;8.40;;;4.10;;
35434;SDS011;21556;55.782;37.528;2022-11-02T06:37:55;7.55;;;4.05;;
35434;SDS011;21556;55.782;37.528;2022-11-02T06:40:21;5.90;;;3.65;;
35434;SDS011;21556;55.782;37.528;2022-11-02T06:42:54;6.60;;;3.88;;
35434;SDS011;21556;55.782;37.528;2022-11-02T06:45:23;6.63;;;3.38;;
35434;SDS011;21556;55.782;37.528;2022-11-02T06:48:06;8.95;;;3.75;;
35434;SDS011;21556;55.782;37.528;2022-11-02T06:50:33;5.18;;;3.70;;
35434;SDS011;21556;55.782;37.528;2022-11-02T06:52:59;6.32;;;3.22;;
35434;SDS011;21556;55.782;37.528;2022-11-02T06:55:30;12.70;;;5.20;;
35434;SDS011;21556;55.782;37.528;2022-11-02T06:58:00;6.97;;;4.00;;
35434;SDS011;21556;55.782;37.528;2022-11-02T07:00:28;6.57;;;4.00;;
35434;SDS011;21556;55.782;37.528;2022-11-02T07:02:59;6.37;;;3.77;;
35434;SDS011;21556;55.782;37.528;2022-11-02T07:05:31;7.20;;;4.10;;
35434;SDS011;21556;55.782;37.528;2022-11-02T07:07:59;7.22;;;4.38;;
35434;SDS011;21556;55.782;37.528;2022-11-02T07:10:25;9.32;;;4.15;;
35434;SDS011;21556;55.782;37.528;2022-11-02T07:12:52;9.07;;;4.03;;
35434;SDS011;21556;55.782;37.528;2022-11-02T07:15:19;7.00;;;3.95;;
35434;SDS011;21556;55.782;37.528;2022-11-02T07:17:48;7.45;;;4.43;;
35434;SDS011;21556;55.782;37.528;2022-11-02T07:20:14;5.05;;;3.50;;
35434;SDS011;21556;55.782;37.528;2022-11-02T07:22:56;6.97;;;3.72;;
35434;SDS011;21556;55.782;37.528;2022-11-02T07:25:27;12.23;;;4.07;;
35434;SDS011;21556;55.782;37.528;2022-11-02T07:27:57;11.85;;;3.75;;
35434;SDS011;21556;55.782;37.528;2022-11-02T07:30:26;7.40;;;3.25;;
35434;SDS011;21556;55.782;37.528;2022-11-02T07:32:53;12.10;;;3.67;;
35434;SDS011;21556;55.782;37.528;2022-11-02T07:35:19;6.57;;;2.83;;
35434;SDS011;21556;55.782;37.528;2022-11-02T07:38:01;7.20;;;3.80;;
35434;SDS011;21556;55.782;37.528;2022-11-02T07:40:28;6.97;;;3.25;;
35434;SDS011;21556;55.782;37.528;2022-11-02T07:42:55;6.50;;;3.28;;
35434;SDS011;21556;55.782;37.528;2022-11-02T07:45:47;8.85;;;3.70;;
35434;SDS011;21556;55.782;37.528;2022-11-02T07:48:16;6.55;;;3.95;;
35434;SDS011;21556;55.782;37.528;2022-11-02T07:50:44;7.93;;;3.83;;
35434;SDS011;21556;55.782;37.528;2022-11-02T07:53:16;9.18;;;5.68;;
35434;SDS011;21556;55.782;37.528;2022-11-02T07:55:46;12.37;;;4.63;;
35434;SDS011;21556;55.782;37.528;2022-11-02T07:58:17;7.97;;;4.20;;
35434;SDS011;21556;55.782;37.528;2022-11-02T08:00:44;9.63;;;4.57;;
35434;SDS011;21556;55.782;37.528;2022-11-02T08:03:10;8.82;;;4.50;;
35434;SDS011;21556;55.782;37.528;2022-11-02T08:05:39;8.93;;;4.85;;
35434;SDS011;21556;55.782;37.528;2022-11-02T08:08:09;9.05;;;5.30;;
35434;SDS011;21556;55.782;37.528;2022-11-02T08:10:45;8.93;;;6.13;;
35434;SDS011;21556;55.782;37.528;2022-11-02T08:13:22;9.80;;;4.57;;
35434;SDS011;21556;55.782;37.528;2022-11-02T08:15:54;7.93;;;5.30;;
35434;SDS011;21556;55.782;37.528;2022-11-02T08:18:21;7.43;;;5.10;;
35434;SDS011;21556;55.782;37.528;2022-11-02T08:20:56;9.32;;;4.53;;
35434;SDS011;21556;55.782;37.528;2022-11-02T08:23:25;7.50;;;3.95;;
35434;SDS011;21556;55.782;37.528;2022-11-02T08:25:52;9.13;;;5.00;;
35434;SDS011;21556;55.782;37.528;2022-11-02T08:28:23;7.55;;;3.95;;
35434;SDS011;21556;55.782;37.528;2022-11-02T08:31:01;8.50;;;4.85;;
35434;SDS011;21556;55.782;37.528;2022-11-02T08:33:30;7.13;;;3.97;;
35434;SDS011;21556;55.782;37.528;2022-11-02T08:36:00;6.78;;;3.90;;
35434;SDS011;21556;55.782;37.528;2022-11-02T08:38:29;8.35;;;4.10;;
35434;SDS011;21556;55.782;37.528;2022-11-02T08:41:00;10.60;;;4.28;;
35434;SDS011;21556;55.782;37.528;2022-11-02T08:43:26;9.25;;;4.47;;
35434;SDS011;21556;55.782;37.528;2022-11-02T08:45:59;6.20;;;3.97;;
35434;SDS011;21556;55.782;37.528;2022-11-02T08:48:26;7.38;;;4.30;;
35434;SDS011;21556;55.782;37.528;2022-11-02T08:50:52;11.35;;;4.68;;
35434;SDS011;21556;55.782;37.528;2022-11-02T08:53:25;10.82;;;5.18;;
35434;SDS011;21556;55.782;37.528;2022-11-02T08:55:52;9.38;;;4.63;;
35434;SDS011;21556;55.782;37.528;2022-11-02T08:58:26;9.63;;;4.97;;
35434;SDS011;21556;55.782;37.528;2022-11-02T09:00:53;9.07;;;5.38;;
35434;SDS011;21556;55.782;37.528;2022-11-02T09:03:24;10.43;;;4.97;;
35434;SDS011;21556;55.782;37.528;2022-11-02T09:05:58;9.48;;;4.90;;
35434;SDS011;21556;55.782;37.528;2022-11-02T09:08:28;7.68;;;4.57;;
35434;SDS011;21556;55.782;37.528;2022-11-02T09:11:00;7.25;;;4.43;;
35434;SDS011;21556;55.782;37.528;2022-11-02T09:13:27;7.72;;;4.65;;
35434;SDS011;21556;55.782;37.528;2022-11-02T09:15:55;9.40;;;5.03;;
35434;SDS011;21556;55.782;37.528;2022-11-02T09:18:23;9.50;;;4.40;;
35434;SDS011;21556;55.782;37.528;2022-11-02T09:20:50;12.73;;;4.93;;
35434;SDS011;21556;55.782;37.528;2022-11-02T09:23:18;7.25;;;4.50;;
35434;SDS011;21556;55.782;37.528;2022-11-02T09:25:47;17.00;;;8.52;;
35434;SDS011;21556;55.782;37.528;2022-11-02T09:28:15;14.48;;;6.70;;
35434;SDS011;21556;55.782;37.528;2022-11-02T09:30:44;9.35;;;5.15;;
35434;SDS011;21556;55.782;37.528;2022-11-02T09:33:13;8.25;;;4.65;;
35434;SDS011;21556;55.782;37.528;2022-11-02T09:35:41;5.75;;;4.32;;
35434;SDS011;21556;55.782;37.528;2022-11-02T09:38:11;9.10;;;4.97;;
35434;SDS011;21556;55.782;37.528;2022-11-02T09:43:48;10.95;;;4.72;;
35434;SDS011;21556;55.782;37.528;2022-11-02T09:46:53;8.55;;;4.40;;
35434;SDS011;21556;55.782;37.528;2022-11-02T09:49:21;9.23;;;5.38;;
35434;SDS011;21556;55.782;37.528;2022-11-02T09:51:54;13.15;;;5.32;;
35434;SDS011;21556;55.782;37.528;2022-11-02T09:54:26;9.15;;;5.57;;
35434;SDS011;21556;55.782;37.528;2022-11-02T09:57:07;13.40;;;5.55;;
35434;SDS011;21556;55.782;37.528;2022-11-02T09:59:47;10.25;;;5.95;;
35434;SDS011;21556;55.782;37.528;2022-11-02T10:18:52;10.73;;;7.32;;
35434;SDS011;21556;55.782;37.528;2022-11-02T10:21:20;8.40;;;5.77;;
35434;SDS011;21556;55.782;37.528;2022-11-02T10:23:53;23.23;;;7.78;;
35434;SDS011;21556;55.782;37.528;2022-11-02T10:26:34;11.25;;;6.47;;
35434;SDS011;21556;55.782;37.528;2022-11-02T10:29:03;9.10;;;6.32;;
35434;SDS011;21556;55.782;37.528;2022-11-02T10:31:39;11.88;;;7.05;;
35434;SDS011;21556;55.782;37.528;2022-11-02T10:34:21;12.20;;;6.82;;
35434;SDS011;21556;55.782;37.528;2022-11-02T10:50:47;12.95;;;5.97;;
35434;SDS011;21556;55.782;37.528;2022-11-02T10:53:33;12.65;;;6.07;;
35434;SDS011;21556;55.782;37.528;2022-11-02T10:56:30;11.05;;;6.60;;
35434;SDS011;21556;55.782;37.528;2022-11-02T11:01:24;14.25;;;7.00;;
35434;SDS011;21556;55.782;37.528;2022-11-02T11:06:20;10.20;;;6.22;;
35434;SDS011;21556;55.782;37.528;2022-11-02T11:08:50;20.20;;;6.63;;
35434;SDS011;21556;55.782;37.528;2022-11-02T11:11:35;11.15;;;6.25;;
35434;SDS011;21556;55.782;37.528;2022-11-02T11:16:39;12.85;;;6.63;;
35434;SDS011;21556;55.782;37.528;2022-11-02T11:19:18;11.75;;;6.97;;
35434;SDS011;21556;55.782;37.528;2022-11-02T11:22:01;10.50;;;6.40;;
35434;SDS011;21556;55.782;37.528;2022-11-02T11:24:46;11.18;;;6.65;;
35434;SDS011;21556;55.782;37.528;2022-11-02T11:27:17;13.15;;;7.20;;
35434;SDS011;21556;55.782;37.528;2022-11-02T11:29:50;11.75;;;6.60;;
35434;SDS011;21556;55.782;37.528;2022-11-02T11:32:22;12.65;;;6.13;;
35434;SDS011;21556;55.782;37.528;2022-11-02T11:34:57;13.13;;;7.05;;
35434;SDS011;21556;55.782;37.528;2022-11-02T11:37:33;12.40;;;6.63;;
35434;SDS011;21556;55.782;37.528;2022-11-02T11:40:05;14.48;;;7.07;;
35434;SDS011;21556;55.782;37.528;2022-11-02T11:42:46;11.18;;;6.63;;
35434;SDS011;21556;55.782;37.528;2022-11-02T11:45:17;9.95;;;6.32;;
35434;SDS011;21556;55.782;37.528;2022-11-02T11:47:53;10.50;;;6.70;;
35434;SDS011;21556;55.782;37.528;2022-11-02T11:50:21;10.15;;;6.43;;
35434;SDS011;21556;55.782;37.528;2022-11-02T11:53:35;13.90;;;7.18;;
35434;SDS011;21556;55.782;37.528;2022-11-02T11:55:49;11.63;;;6.88;;
35434;SDS011;21556;55.782;37.528;2022-11-02T11:58:22;12.57;;;7.20;;
35434;SDS011;21556;55.782;37.528;2022-11-02T12:03:49;12.35;;;6.63;;
35434;SDS011;21556;55.782;37.528;2022-11-02T12:15:12;9.20;;;6.35;;
35434;SDS011;21556;55.782;37.528;2022-11-02T12:17:51;18.83;;;6.93;;
35434;SDS011;21556;55.782;37.528;2022-11-02T13:04:30;14.40;;;6.77;;
35434;SDS011;21556;55.782;37.528;2022-11-02T13:10:21;11.07;;;6.88;;
35434;SDS011;21556;55.782;37.528;2022-11-02T13:13:09;12.05;;;8.20;;
35434;SDS011;21556;55.782;37.528;2022-11-02T13:15:45;16.37;;;8.07;;
35434;SDS011;21556;55.782;37.528;2022-11-02T13:18:20;10.77;;;7.57;;
35434;SDS011;21556;55.782;37.528;2022-11-02T13:20:51;11.88;;;7.85;;
35434;SDS011;21556;55.782;37.528;2022-11-02T13:23:27;15.57;;;8.25;;
35434;SDS011;21556;55.782;37.528;2022-11-02T13:26:01;13.30;;;8.13;;
35434;SDS011;21556;55.782;37.528;2022-11-02T13:28:46;14.07;;;7.03;;
35434;SDS011;21556;55.782;37.528;2022-11-02T13:34:03;10.38;;;6.38;;
35434;SDS011;21556;55.782;37.528;2022-11-02T13:36:35;13.37;;;6.20;;
35434;SDS011;21556;55.782;37.528;2022-11-02T13:39:27;10.10;;;6.17;;
35434;SDS011;21556;55.782;37.528;2022-11-02T13:50:53;10.75;;;6.10;;
35434;SDS011;21556;55.782;37.528;2022-11-02T13:53:28;15.18;;;6.75;;
35434;SDS011;21556;55.782;37.528;2022-11-02T13:56:04;13.43;;;6.97;;
35434;SDS011;21556;55.782;37.528;2022-11-02T13:58:48;9.50;;;6.60;;
35434;SDS011;21556;55.782;37.528;2022-11-02T14:01:21;10.07;;;4.93;;
35434;SDS011;21556;55.782;37.528;2022-11-02T14:06:50;10.03;;;6.23;;
35434;SDS011;21556;55.782;37.528;2022-11-02T14:09:36;10.88;;;6.13;;
35434;SDS011;21556;55.782;37.528;2022-11-02T14:25:54;8.73;;;5.43;;
35434;SDS011;21556;55.782;37.528;2022-11-02T14:28:29;13.20;;;6.23;;
35434;SDS011;21556;55.782;37.528;2022-11-02T14:37:04;10.63;;;5.77;;
35434;SDS011;21556;55.782;37.528;2022-11-02T14:44:58;9.53;;;5.20;;
35434;SDS011;21556;55.782;37.528;2022-11-02T14:47:41;12.47;;;6.13;;
35434;SDS011;21556;55.782;37.528;2022-11-02T14:52:39;8.10;;;5.50;;
35434;SDS011;21556;55.782;37.528;2022-11-02T14:55:19;7.90;;;5.13;;
35434;SDS011;21556;55.782;37.528;2022-11-02T15:03:34;10.50;;;5.20;;
35434;SDS011;21556;55.782;37.528;2022-11-02T15:09:49;12.30;;;4.17;;
35434;SDS011;21556;55.782;37.528;2022-11-02T15:12:34;10.83;;;5.73;;
35434;SDS011;21556;55.782;37.528;2022-11-02T15:20:25;9.90;;;6.40;;
35434;SDS011;21556;55.782;37.528;2022-11-02T15:22:55;11.43;;;5.90;;
35434;SDS011;21556;55.782;37.528;2022-11-02T15:25:28;12.07;;;6.17;;
35434;SDS011;21556;55.782;37.528;2022-11-02T15:28:10;13.10;;;6.10;;
35434;SDS011;21556;55.782;37.528;2022-11-02T15:30:44;16.77;;;8.23;;
35434;SDS011;21556;55.782;37.528;2022-11-02T15:33:16;12.80;;;6.83;;
35434;SDS011;21556;55.782;37.528;2022-11-02T15:35:58;10.13;;;6.40;;
35434;SDS011;21556;55.782;37.528;2022-11-02T15:38:26;12.45;;;5.00;;
35434;SDS011;21556;55.782;37.528;2022-11-02T15:52:03;13.47;;;5.63;;
35434;SDS011;21556;55.782;37.528;2022-11-02T16:00:18;8.67;;;4.83;;
35434;SDS011;21556;55.782;37.528;2022-11-02T16:03:05;12.50;;;4.73;;
35434;SDS011;21556;55.782;37.528;2022-11-02T16:08:20;7.70;;;4.53;;
35434;SDS011;21556;55.782;37.528;2022-11-02T16:10:48;5.77;;;4.10;;
35434;SDS011;21556;55.782;37.528;2022-11-02T16:15:47;11.50;;;5.07;;
35434;SDS011;21556;55.782;37.528;2022-11-02T16:18:27;7.70;;;4.53;;
35434;SDS011;21556;55.782;37.528;2022-11-02T16:21:05;6.93;;;4.97;;
35434;SDS011;21556;55.782;37.528;2022-11-02T16:23:36;8.33;;;5.40;;
35434;SDS011;21556;55.782;37.528;2022-11-02T16:26:11;8.10;;;5.93;;
35434;SDS011;21556;55.782;37.528;2022-11-02T16:30:01;8.70;;;5.27;;
35434;SDS011;21556;55.782;37.528;2022-11-02T16:32:29;9.27;;;5.87;;
35434;SDS011;21556;55.782;37.528;2022-11-02T16:35:04;7.70;;;5.80;;
35434;SDS011;21556;55.782;37.528;2022-11-02T16:37:31;8.45;;;5.22;;
35434;SDS011;21556;55.782;37.528;2022-11-02T16:39:59;12.80;;;6.57;;
35434;SDS011;21556;55.782;37.528;2022-11-02T16:42:30;10.33;;;5.33;;
35434;SDS011;21556;55.782;37.528;2022-11-02T16:44:59;7.97;;;4.80;;
35434;SDS011;21556;55.782;37.528;2022-11-02T16:47:39;10.70;;;4.90;;
35434;SDS011;21556;55.782;37.528;2022-11-02T16:50:19;7.27;;;4.60;;
35434;SDS011;21556;55.782;37.528;2022-11-02T16:55:50;12.00;;;5.93;;
35434;SDS011;21556;55.782;37.528;2022-11-02T16:58:22;10.33;;;5.60;;
35434;SDS011;21556;55.782;37.528;2022-11-02T17:00:52;8.50;;;5.27;;
35434;SDS011;21556;55.782;37.528;2022-11-02T17:03:22;8.47;;;5.97;;
35434;SDS011;21556;55.782;37.528;2022-11-02T17:05:51;9.57;;;5.47;;
35434;SDS011;21556;55.782;37.528;2022-11-02T17:08:21;13.27;;;5.73;;
35434;SDS011;21556;55.782;37.528;2022-11-02T17:13:24;13.10;;;6.07;;
35434;SDS011;21556;55.782;37.528;2022-11-02T17:15:51;5.23;;;3.53;;
35434;SDS011;21556;55.782;37.528;2022-11-02T17:20:45;12.83;;;5.17;;
35434;SDS011;21556;55.782;37.528;2022-11-02T17:23:31;7.87;;;4.63;;
35434;SDS011;21556;55.782;37.528;2022-11-02T17:26:41;8.30;;;5.03;;
35434;SDS011;21556;55.782;37.528;2022-11-02T17:28:55;7.17;;;5.27;;
35434;SDS011;21556;55.782;37.528;2022-11-02T17:31:23;7.77;;;4.87;;
35434;SDS011;21556;55.782;37.528;2022-11-02T17:33:53;11.80;;;5.30;;
35434;SDS011;21556;55.782;37.528;2022-11-02T17:36:44;12.70;;;5.27;;
35434;SDS011;21556;55.782;37.528;2022-11-02T17:39:13;7.80;;;5.37;;
35434;SDS011;21556;55.782;37.528;2022-11-02T17:41:44;9.55;;;6.10;;
35434;SDS011;21556;55.782;37.528;2022-11-02T17:44:38;8.63;;;4.87;;
35434;SDS011;21556;55.782;37.528;2022-11-02T17:47:10;5.97;;;4.53;;
35434;SDS011;21556;55.782;37.528;2022-11-02T17:49:39;6.97;;;4.57;;
35434;SDS011;21556;55.782;37.528;2022-11-02T17:52:05;11.90;;;6.17;;
35434;SDS011;21556;55.782;37.528;2022-11-02T17:54:32;7.67;;;5.00;;
35434;SDS011;21556;55.782;37.528;2022-11-02T17:56:58;10.07;;;5.83;;
35434;SDS011;21556;55.782;37.528;2022-11-02T17:59:26;8.70;;;5.03;;
35434;SDS011;21556;55.782;37.528;2022-11-02T18:01:52;9.80;;;5.57;;
35434;SDS011;21556;55.782;37.528;2022-11-02T18:04:17;6.80;;;4.77;;
35434;SDS011;21556;55.782;37.528;2022-11-02T18:06:43;8.67;;;4.70;;
35434;SDS011;21556;55.782;37.528;2022-11-02T18:09:11;8.27;;;4.47;;
35434;SDS011;21556;55.782;37.528;2022-11-02T18:11:39;6.38;;;3.42;;
35434;SDS011;21556;55.782;37.528;2022-11-02T18:14:07;8.43;;;5.10;;
35434;SDS011;21556;55.782;37.528;2022-11-02T18:16:38;9.57;;;4.30;;
35434;SDS011;21556;55.782;37.528;2022-11-02T18:19:06;10.32;;;4.97;;
35434;SDS011;21556;55.782;37.528;2022-11-02T18:21:32;9.37;;;4.47;;
35434;SDS011;21556;55.782;37.528;2022-11-02T18:23:59;11.03;;;5.07;;
35434;SDS011;21556;55.782;37.528;2022-11-02T18:26:24;10.50;;;5.10;;
35434;SDS011;21556;55.782;37.528;2022-11-02T18:28:50;8.97;;;5.00;;
35434;SDS011;21556;55.782;37.528;2022-11-02T18:31:16;7.93;;;4.87;;
35434;SDS011;21556;55.782;37.528;2022-11-02T18:33:42;7.43;;;5.37;;
35434;SDS011;21556;55.782;37.528;2022-11-02T18:36:08;8.03;;;5.00;;
35434;SDS011;21556;55.782;37.528;2022-11-02T18:38:35;7.13;;;4.60;;
35434;SDS011;21556;55.782;37.528;2022-11-02T18:41:07;7.43;;;4.87;;
35434;SDS011;21556;55.782;37.528;2022-11-02T18:43:55;8.50;;;5.27;;
35434;SDS011;21556;55.782;37.528;2022-11-02T18:46:24;10.40;;;6.33;;
35434;SDS011;21556;55.782;37.528;2022-11-02T18:48:51;8.13;;;4.67;;
35434;SDS011;21556;55.782;37.528;2022-11-02T18:51:17;10.20;;;3.73;;
35434;SDS011;21556;55.782;37.528;2022-11-02T18:53:44;7.50;;;3.73;;